Time;durP1;ratioP1;P1;durP2;ratioP2;P2;SDS_P1;SDS_P2;PMS_P1;PMS_P2;Temp;Humidity;BMP_temperature;BMP_pressure;BME280_temperature;BME280_humidity;BME280_pressure;Samples;Min_cycle;Max_cycle;Signal;HPM_P1;HPM_P2
2021/07/22 00:07:05;;;;;;;11.13;3.40;;;18.10;99.90;;;;;;20765174;28;20070;-49
2021/07/22 00:17:08;;;;;;;7.60;2.63;;;18.10;99.90;;;;;;20745554;28;20119;-48
2021/07/22 00:27:13;;;;;;;10.52;2.58;;;17.90;99.90;;;;;;20742954;28;20049;-48
2021/07/22 00:37:14;;;;;;;8.48;2.88;;;17.80;99.90;;;;;;20764449;28;20033;-47
2021/07/22 00:47:16;;;;;;;9.73;2.65;;;17.70;99.90;;;;;;20762596;28;20041;-48
2021/07/22 00:57:17;;;;;;;10.10;3.63;;;17.80;99.90;;;;;;20759661;28;20045;-48
2021/07/22 01:07:18;;;;;;;7.40;2.85;;;17.60;99.90;;;;;;20751027;28;20051;-50
2021/07/22 01:17:28;;;;;;;8.73;2.75;;;17.50;99.90;;;;;;20760296;28;20057;-48
2021/07/22 01:27:29;;;;;;;8.32;3.60;;;17.50;99.90;;;;;;20754635;28;20049;-48
2021/07/22 01:37:30;;;;;;;13.18;3.58;;;17.50;99.90;;;;;;20762411;28;20073;-49
2021/07/22 01:47:38;;;;;;;8.70;3.83;;;17.40;99.90;;;;;;20754008;28;20077;-48
2021/07/22 01:57:40;;;;;;;9.82;4.25;;;17.40;99.90;;;;;;20752865;28;20270;-49
2021/07/22 02:07:41;;;;;;;8.55;3.03;;;17.30;99.90;;;;;;20748459;28;20136;-49
2021/07/22 02:17:42;;;;;;;10.82;4.90;;;17.40;99.90;;;;;;20679848;28;20038;-49
2021/07/22 02:27:43;;;;;;;8.45;3.45;;;17.40;99.90;;;;;;20671588;28;20089;-48
2021/07/22 02:37:45;;;;;;;12.70;3.92;;;17.30;99.90;;;;;;20667263;28;20061;-48
2021/07/22 02:47:47;;;;;;;10.52;4.10;;;17.20;99.90;;;;;;20657964;28;20146;-48
2021/07/22 02:57:48;;;;;;;8.55;3.92;;;17.20;99.90;;;;;;20644199;28;20248;-49
2021/07/22 03:07:49;;;;;;;11.77;3.33;;;17.10;99.90;;;;;;20657233;28;20053;-48
2021/07/22 03:17:50;;;;;;;8.73;3.05;;;17.00;99.90;;;;;;20751743;28;20104;-48
2021/07/22 03:27:51;;;;;;;11.35;4.03;;;17.00;99.90;;;;;;20750227;28;20057;-48
2021/07/22 03:37:52;;;;;;;9.15;3.25;;;16.90;99.90;;;;;;20749486;28;20061;-48
2021/07/22 03:47:53;;;;;;;9.82;3.97;;;16.80;99.90;;;;;;20750011;28;20097;-48
2021/07/22 03:57:56;;;;;;;9.55;3.75;;;16.80;99.90;;;;;;20748213;28;20046;-49
2021/07/22 04:07:58;;;;;;;8.13;3.55;;;16.80;99.90;;;;;;20751633;28;20053;-48
2021/07/22 04:17:59;;;;;;;8.95;2.35;;;16.90;99.90;;;;;;20738344;28;20038;-48
2021/07/22 04:28:00;;;;;;;6.70;2.85;;;16.90;99.90;;;;;;20746048;28;20195;-48
2021/07/22 04:38:01;;;;;;;7.80;2.90;;;16.90;99.90;;;;;;20736658;28;20042;-53
2021/07/22 04:48:04;;;;;;;7.45;2.42;;;16.90;99.90;;;;;;20734737;28;20061;-47
2021/07/22 04:58:05;;;;;;;6.90;3.22;;;16.90;99.90;;;;;;20731212;28;20041;-48
2021/07/22 05:08:06;;;;;;;8.23;3.17;;;17.40;99.90;;;;;;20752900;28;20049;-49
2021/07/22 05:18:07;;;;;;;9.13;3.47;;;17.70;99.90;;;;;;20746622;28;20041;-48
2021/07/22 05:28:08;;;;;;;7.57;3.00;;;17.70;99.90;;;;;;20736589;28;20049;-49
2021/07/22 05:38:09;;;;;;;6.97;2.80;;;18.00;99.90;;;;;;20731115;28;20045;-48
2021/07/22 05:48:11;;;;;;;6.80;2.90;;;18.10;99.90;;;;;;20724132;28;20048;-50
2021/07/22 05:58:12;;;;;;;5.07;2.63;;;18.20;99.90;;;;;;20733919;28;20045;-48
2021/07/22 06:08:13;;;;;;;5.60;2.47;;;18.30;99.90;;;;;;20728212;28;20041;-49
2021/07/22 06:18:14;;;;;;;5.18;2.35;;;18.40;99.90;;;;;;20728020;28;20393;-49
2021/07/22 06:28:15;;;;;;;7.55;2.42;;;18.40;99.90;;;;;;20722898;28;20053;-49
2021/07/22 06:38:17;;;;;;;7.38;2.70;;;18.50;99.90;;;;;;20722505;28;20061;-49
2021/07/22 06:48:18;;;;;;;5.80;1.90;;;19.00;99.90;;;;;;20740569;28;20038;-49
2021/07/22 06:58:19;;;;;;;3.55;1.73;;;19.20;99.90;;;;;;20736637;28;20148;-48
2021/07/22 07:08:20;;;;;;;4.82;1.98;;;19.50;99.90;;;;;;20740399;28;20080;-49
2021/07/22 07:18:21;;;;;;;4.25;1.73;;;19.70;99.90;;;;;;20730556;28;20200;-49
2021/07/22 07:28:23;;;;;;;4.03;1.60;;;19.70;99.90;;;;;;20727081;28;20177;-49
2021/07/22 07:38:24;;;;;;;6.78;1.85;;;19.60;99.90;;;;;;20727325;28;20062;-49
2021/07/22 07:48:25;;;;;;;4.97;1.67;;;19.70;99.90;;;;;;20730498;28;20063;-49
2021/07/22 07:58:26;;;;;;;3.50;1.30;;;20.00;99.90;;;;;;20731618;28;20042;-49
2021/07/22 08:08:27;;;;;;;4.82;1.45;;;19.70;99.90;;;;;;20734479;28;20048;-49
2021/07/22 08:18:29;;;;;;;3.80;1.75;;;19.50;99.90;;;;;;20727935;28;20041;-49
2021/07/22 08:28:30;;;;;;;5.15;1.50;;;19.60;99.90;;;;;;20723782;28;20046;-49
2021/07/22 08:38:31;;;;;;;3.35;1.48;;;19.50;99.90;;;;;;20722460;28;20046;-49
2021/07/22 08:48:36;;;;;;;2.72;1.23;;;19.60;99.90;;;;;;20721009;28;20056;-49
2021/07/22 08:58:39;;;;;;;5.22;1.60;;;19.70;99.90;;;;;;20725074;28;20125;-49
2021/07/22 09:08:41;;;;;;;3.08;1.02;;;19.80;99.90;;;;;;20726208;28;20213;-49
2021/07/22 09:18:45;;;;;;;3.05;1.25;;;20.10;99.90;;;;;;20718555;28;20068;-48
2021/07/22 09:29:10;;;;;;;3.13;1.30;;;20.40;99.90;;;;;;20673254;28;20053;-48
2021/07/22 09:39:24;;;;;;;3.53;1.20;;;20.90;99.90;;;;;;20722175;28;20077;-49
2021/07/22 09:49:33;;;;;;;2.65;0.80;;;21.40;99.90;;;;;;20691516;28;20046;-49
2021/07/22 09:59:36;;;;;;;2.97;1.35;;;21.50;99.90;;;;;;20707525;28;20042;-48
2021/07/22 10:09:38;;;;;;;2.10;0.90;;;21.60;99.90;;;;;;20727340;28;20140;-49
2021/07/22 10:19:39;;;;;;;2.42;1.02;;;21.60;99.90;;;;;;20742455;28;20034;-50
2021/07/22 10:29:41;;;;;;;2.45;0.88;;;22.10;99.90;;;;;;20733073;28;20053;-48
2021/07/22 10:39:58;;;;;;;3.50;1.30;;;22.50;99.90;;;;;;20733019;28;20052;-49
2021/07/22 10:50:00;;;;;;;2.97;1.17;;;22.30;99.90;;;;;;20733230;28;20046;-48
2021/07/22 11:00:04;;;;;;;3.08;1.30;;;22.40;99.90;;;;;;20739417;28;20046;-47
2021/07/22 11:10:06;;;;;;;3.40;0.60;;;22.30;99.90;;;;;;20727535;28;20049;-48
2021/07/22 11:20:19;;;;;;;2.35;0.95;;;22.70;99.90;;;;;;20733759;28;20073;-48
2021/07/22 11:30:21;;;;;;;1.38;0.52;;;22.90;99.90;;;;;;20726732;28;20061;-50
2021/07/22 11:40:24;;;;;;;1.75;0.80;;;23.20;99.90;;;;;;20727901;28;20046;-47
2021/07/22 11:50:28;;;;;;;3.42;0.88;;;22.90;99.90;;;;;;20734045;28;20049;-48
2021/07/22 12:00:34;;;;;;;3.08;0.98;;;22.80;99.90;;;;;;20666091;28;20045;-47
2021/07/22 12:10:36;;;;;;;2.37;1.10;;;23.30;99.90;;;;;;20701954;28;20049;-48
2021/07/22 12:20:38;;;;;;;2.25;0.77;;;23.10;99.90;;;;;;20703118;28;20104;-47
2021/07/22 12:30:39;;;;;;;2.05;0.80;;;23.00;99.90;;;;;;20721898;28;20054;-48
2021/07/22 12:40:41;;;;;;;2.00;0.80;;;23.50;99.90;;;;;;20724497;28;20046;-48
2021/07/22 12:50:45;;;;;;;1.90;0.70;;;23.20;99.90;;;;;;20718443;28;20116;-47
2021/07/22 13:00:46;;;;;;;2.00;1.08;;;22.70;99.90;;;;;;20734606;28;20041;-48
2021/07/22 13:10:48;;;;;;;2.47;0.93;;;23.50;99.90;;;;;;20722198;28;20046;-48
2021/07/22 13:20:49;;;;;;;2.38;0.93;;;23.20;99.90;;;;;;20720927;28;20034;-47
2021/07/22 13:30:51;;;;;;;4.68;1.23;;;23.40;99.90;;;;;;20713994;28;20413;-48
2021/07/22 13:40:52;;;;;;;2.05;0.98;;;23.50;99.90;;;;;;20716945;28;20038;-48
2021/07/22 13:50:54;;;;;;;1.67;0.90;;;23.80;99.90;;;;;;20722942;28;20081;-48
2021/07/22 14:00:55;;;;;;;3.28;0.80;;;24.00;99.90;;;;;;20724945;28;20050;-48
2021/07/22 14:10:56;;;;;;;1.95;0.68;;;23.90;99.90;;;;;;20724287;28;20371;-48
2021/07/22 14:20:58;;;;;;;2.05;0.80;;;23.70;99.90;;;;;;20724624;28;20475;-48
2021/07/22 14:31:00;;;;;;;1.98;0.90;;;23.40;99.90;;;;;;20718975;28;20042;-48
2021/07/22 14:41:02;;;;;;;1.73;0.82;;;23.20;99.90;;;;;;20651986;28;20421;-47
2021/07/22 14:51:03;;;;;;;2.13;0.88;;;22.80;99.90;;;;;;20714379;28;20064;-50
2021/07/22 15:01:06;;;;;;;2.55;0.85;;;22.70;99.90;;;;;;20726971;28;20404;-50
2021/07/22 15:11:07;;;;;;;1.70;0.80;;;22.70;99.90;;;;;;20736422;28;20048;-50
2021/07/22 15:21:09;;;;;;;1.58;0.60;;;22.40;99.90;;;;;;20725653;28;20543;-50
2021/07/22 15:31:10;;;;;;;2.28;0.85;;;22.50;99.90;;;;;;20733346;28;20041;-50
2021/07/22 15:41:12;;;;;;;2.10;0.60;;;22.50;99.90;;;;;;20729162;28;20441;-49
2021/07/22 15:51:13;;;;;;;1.90;0.52;;;22.20;98.70;;;;;;20725909;28;20410;-49
2021/07/22 16:01:15;;;;;;;1.20;0.40;;;22.40;98.70;;;;;;20723479;28;20412;-50
2021/07/22 16:11:16;;;;;;;1.17;0.40;;;22.00;97.90;;;;;;20726860;28;20445;-49
2021/07/22 16:21:18;;;;;;;1.50;0.60;;;21.70;96.20;;;;;;20733158;28;20414;-49
2021/07/22 16:31:22;;;;;;;2.80;0.85;;;21.80;99.30;;;;;;20721344;28;20517;-49
2021/07/22 16:41:27;;;;;;;1.85;0.60;;;21.90;99.90;;;;;;20727332;28;20406;-49
2021/07/22 16:51:29;;;;;;;2.40;0.55;;;21.40;99.90;;;;;;20705202;28;20456;-49
2021/07/22 17:01:31;;;;;;;3.05;1.42;;;21.30;99.90;;;;;;20722092;28;20394;-50
2021/07/22 17:11:35;;;;;;;2.28;0.88;;;21.00;99.90;;;;;;20722712;28;20065;-48
2021/07/22 17:21:38;;;;;;;1.65;0.60;;;21.00;99.90;;;;;;20694234;28;20670;-50
2021/07/22 17:31:39;;;;;;;3.63;0.77;;;20.70;99.90;;;;;;20732855;28;20401;-48
2021/07/22 17:41:40;;;;;;;3.08;0.98;;;20.50;99.90;;;;;;20725516;28;20529;-49
2021/07/22 17:51:42;;;;;;;1.60;0.50;;;20.40;99.90;;;;;;20694842;28;20502;-48
2021/07/22 18:01:43;;;;;;;6.00;1.15;;;20.30;99.90;;;;;;20729339;28;20428;-48
2021/07/22 18:11:44;;;;;;;1.48;0.40;;;20.10;99.90;;;;;;20742086;28;20417;-48
2021/07/22 18:21:46;;;;;;;1.63;0.68;;;20.10;99.90;;;;;;20689146;28;20072;-48
2021/07/22 18:32:05;;;;;;;1.70;0.52;;;19.90;99.90;;;;;;20729103;28;20500;-48
2021/07/22 18:42:12;;;;;;;2.08;0.60;;;19.80;99.90;;;;;;20746014;28;20401;-49
2021/07/22 18:52:13;;;;;;;2.58;0.50;;;19.60;99.90;;;;;;20758311;28;20757;-49
2021/07/22 19:02:15;;;;;;;0.80;0.38;;;19.30;99.90;;;;;;20773289;28;20505;-49
2021/07/22 19:12:16;;;;;;;6.47;2.00;;;19.20;99.90;;;;;;20754662;28;20503;-48
2021/07/22 19:22:18;;;;;;;1.08;0.35;;;19.20;99.90;;;;;;20757296;28;20779;-48
2021/07/22 19:32:19;;;;;;;1.73;0.80;;;19.00;99.90;;;;;;20757120;28;20044;-47
2021/07/22 19:42:21;;;;;;;3.13;0.60;;;19.00;99.90;;;;;;20775719;28;20489;-48
2021/07/22 19:52:22;;;;;;;3.03;1.15;;;18.80;99.90;;;;;;20763219;28;20049;-48
2021/07/22 20:02:23;;;;;;;3.58;0.60;;;18.70;99.90;;;;;;20760894;28;20048;-48
2021/07/22 20:12:25;;;;;;;3.65;1.67;;;18.80;99.90;;;;;;20763729;28;20404;-48
2021/07/22 20:22:27;;;;;;;1.80;0.60;;;18.60;99.90;;;;;;20762444;28;20569;-48
2021/07/22 20:32:28;;;;;;;1.98;1.02;;;18.50;99.90;;;;;;20754467;28;20053;-48
2021/07/22 20:42:30;;;;;;;2.28;0.50;;;18.50;99.90;;;;;;20764103;28;20109;-48
2021/07/22 20:52:32;;;;;;;4.65;1.25;;;18.40;99.90;;;;;;20763284;28;20473;-47
2021/07/22 21:02:38;;;;;;;2.45;0.70;;;18.30;99.90;;;;;;20752669;28;20049;-47
2021/07/22 21:12:41;;;;;;;2.42;0.80;;;18.10;99.90;;;;;;20749988;28;20052;-57
2021/07/22 21:22:43;;;;;;;2.75;0.80;;;18.10;99.90;;;;;;20746182;28;20703;-48
2021/07/22 21:32:44;;;;;;;2.47;1.10;;;18.00;99.90;;;;;;20741054;28;20761;-47
2021/07/22 21:42:45;;;;;;;2.00;1.02;;;18.00;99.90;;;;;;20735977;28;20041;-48
2021/07/22 21:52:47;;;;;;;3.25;1.02;;;17.70;99.90;;;;;;20721591;28;20366;-47
2021/07/22 22:02:48;;;;;;;3.92;0.75;;;17.40;99.90;;;;;;20724994;28;20057;-48
2021/07/22 22:12:49;;;;;;;3.17;1.23;;;17.10;99.90;;;;;;20734446;28;20052;-48
2021/07/22 22:22:50;;;;;;;2.88;0.80;;;16.90;99.90;;;;;;20757975;28;20532;-48
2021/07/22 22:32:51;;;;;;;5.03;1.05;;;16.90;99.90;;;;;;20762941;28;20433;-47
2021/07/22 22:42:53;;;;;;;1.55;0.60;;;16.90;99.90;;;;;;20762128;28;20054;-48
2021/07/22 22:52:54;;;;;;;3.88;1.33;;;16.70;99.90;;;;;;20763264;28;20041;-48
2021/07/22 23:02:55;;;;;;;3.42;1.58;;;16.60;99.90;;;;;;20759280;28;20107;-48
2021/07/22 23:12:56;;;;;;;2.60;1.05;;;16.50;99.90;;;;;;20778895;28;20049;-48
2021/07/22 23:22:57;;;;;;;2.40;0.90;;;16.40;99.90;;;;;;20753911;28;20129;-48
2021/07/22 23:33:00;;;;;;;2.70;1.02;;;16.30;99.90;;;;;;20746075;28;20073;-48
2021/07/22 23:43:01;;;;;;;2.30;0.80;;;16.30;99.90;;;;;;20751357;28;20180;-48
2021/07/22 23:53:02;;;;;;;2.17;0.98;;;16.30;99.90;;;;;;20756805;28;20053;-48
